createdAt,value
2018-10-16T03:01:00.961Z,989.84
2018-10-16T03:02:01.951Z,989.84
2018-10-16T03:03:00.928Z,989.88
2018-10-16T03:04:01.082Z,989.88
2018-10-16T03:05:01.210Z,989.84
2018-10-16T03:06:01.307Z,989.87
2018-10-16T03:07:01.605Z,989.81
2018-10-16T03:08:01.688Z,989.84
2018-10-16T03:09:02.840Z,989.84
2018-10-16T03:10:01.974Z,989.87
2018-10-16T03:11:02.298Z,989.93
2018-10-16T03:12:02.295Z,989.88
2018-10-16T03:13:02.553Z,989.91
2018-10-16T03:14:02.678Z,989.91
2018-10-16T03:15:02.833Z,989.88
2018-10-16T03:16:02.976Z,989.91
2018-10-16T03:17:03.101Z,989.92
2018-10-16T03:18:03.339Z,989.94
2018-10-16T03:19:03.436Z,989.93
2018-10-16T03:20:03.617Z,989.93
2018-10-16T03:21:03.750Z,989.93
2018-10-16T03:22:03.934Z,989.95
2018-10-16T03:23:04.143Z,989.95
2018-10-16T03:24:04.304Z,989.97
2018-10-16T03:25:04.438Z,989.95
2018-10-16T03:26:04.586Z,989.97
2018-10-16T03:27:04.801Z,989.96
2018-10-16T03:28:04.894Z,989.95
2018-10-16T03:29:05.133Z,989.99
2018-10-16T03:30:05.277Z,989.97
2018-10-16T03:31:05.449Z,990.01
2018-10-16T03:32:05.589Z,990.01
2018-10-16T03:33:05.738Z,990.07
2018-10-16T03:34:05.915Z,990.06
2018-10-16T03:35:06.024Z,990.05
2018-10-16T03:36:06.281Z,990.03
2018-10-16T03:37:06.425Z,990.02
2018-10-16T03:38:06.544Z,990.03
2018-10-16T03:39:06.737Z,990.01
2018-10-16T03:40:06.963Z,990.00
2018-10-16T03:41:07.084Z,990.04
2018-10-16T03:42:07.277Z,990.03
2018-10-16T03:43:07.415Z,990.02
2018-10-16T03:44:07.544Z,990.06
2018-10-16T03:45:07.650Z,990.03
2018-10-16T03:46:07.851Z,990.11
2018-10-16T03:47:08.051Z,990.08
2018-10-16T03:48:08.246Z,990.08
2018-10-16T03:49:08.376Z,990.15
2018-10-16T03:50:08.591Z,990.18
2018-10-16T03:51:08.784Z,990.18
2018-10-16T03:52:08.967Z,990.20
2018-10-16T03:53:09.094Z,990.24
2018-10-16T03:54:09.295Z,990.23
2018-10-16T03:55:09.468Z,990.26
2018-10-16T03:56:09.608Z,990.25
2018-10-16T03:57:09.749Z,990.28
2018-10-16T03:58:09.979Z,990.26
2018-10-16T03:59:10.089Z,990.26
2018-10-16T04:00:10.291Z,990.25
2018-10-16T04:01:10.500Z,990.26
2018-10-16T04:02:10.559Z,990.30
2018-10-16T04:03:10.796Z,990.30
2018-10-16T04:04:10.929Z,990.30
2018-10-16T04:05:11.195Z,990.31
2018-10-16T04:06:11.319Z,990.31
2018-10-16T04:07:11.485Z,990.31
2018-10-16T04:08:11.571Z,990.29
2018-10-16T04:09:11.739Z,990.33
2018-10-16T04:10:11.906Z,990.32
2018-10-16T04:11:12.091Z,990.29
2018-10-16T04:12:12.237Z,990.31
2018-10-16T04:13:12.437Z,990.36
2018-10-16T04:14:12.615Z,990.34
2018-10-16T04:15:12.737Z,990.39
2018-10-16T04:16:12.920Z,990.34
2018-10-16T04:17:13.086Z,990.31
2018-10-16T04:18:13.316Z,990.30
2018-10-16T04:19:13.423Z,990.32
2018-10-16T04:20:13.573Z,990.30
2018-10-16T04:21:13.850Z,990.31
2018-10-16T04:22:13.920Z,990.33
2018-10-16T04:23:14.093Z,990.36
2018-10-16T04:24:14.256Z,990.36
2018-10-16T04:25:14.405Z,990.38
2018-10-16T04:26:14.644Z,990.37
2018-10-16T04:27:14.769Z,990.41
2018-10-16T04:28:14.974Z,990.40
2018-10-16T04:29:15.171Z,990.37
2018-10-16T04:30:15.338Z,990.41
2018-10-16T04:31:15.428Z,990.43
2018-10-16T04:32:15.625Z,990.37
2018-10-16T04:33:15.755Z,990.40
2018-10-16T04:34:16.135Z,990.35
2018-10-16T04:35:16.147Z,990.33
2018-10-16T04:36:16.552Z,990.32
2018-10-16T04:37:16.431Z,990.35
2018-10-16T04:38:16.644Z,990.37
2018-10-16T04:39:16.714Z,990.37
2018-10-16T04:40:17.092Z,990.39
2018-10-16T04:41:17.140Z,990.40
2018-10-16T04:42:17.397Z,990.39
2018-10-16T04:43:17.499Z,990.43
2018-10-16T04:44:17.598Z,990.40
2018-10-16T04:45:17.863Z,990.42
2018-10-16T04:46:17.963Z,990.41
2018-10-16T04:47:18.258Z,990.44
2018-10-16T04:48:18.288Z,990.45
2018-10-16T04:49:18.571Z,990.42
2018-10-16T04:50:18.697Z,990.40
2018-10-16T04:51:18.894Z,990.42
2018-10-16T04:52:19.058Z,990.41
2018-10-16T04:53:19.329Z,990.41
2018-10-16T04:54:19.311Z,990.45
2018-10-16T04:55:21.196Z,990.42
2018-10-16T04:56:19.751Z,990.44
2018-10-16T04:57:20.004Z,990.44
2018-10-16T04:58:20.116Z,990.42
2018-10-16T04:59:20.224Z,990.45
2018-10-16T05:00:20.456Z,990.44
2018-10-16T05:01:20.714Z,990.44
2018-10-16T05:02:20.958Z,990.47
2018-10-16T05:03:20.992Z,990.39
2018-10-16T05:04:21.221Z,990.44
2018-10-16T05:05:21.294Z,990.44
2018-10-16T05:06:21.503Z,990.45
2018-10-16T05:07:30.657Z,990.44
2018-10-16T05:08:21.768Z,990.44
2018-10-16T05:09:22.019Z,990.46
2018-10-16T05:10:22.120Z,990.46
2018-10-16T05:11:22.286Z,990.45
2018-10-16T05:12:22.421Z,990.46
2018-10-16T05:13:22.641Z,990.41
2018-10-16T05:14:22.768Z,990.46
2018-10-16T05:15:22.916Z,990.46
2018-10-16T05:16:23.941Z,990.48
2018-10-16T05:17:23.275Z,990.47
2018-10-16T05:18:23.598Z,990.51
2018-10-16T05:19:23.725Z,990.53
2018-10-16T05:20:23.830Z,990.56
2018-10-16T05:21:24.440Z,990.54
2018-10-16T05:22:25.219Z,990.62
2018-10-16T05:23:24.296Z,990.62
2018-10-16T05:24:24.717Z,990.54
2018-10-16T05:25:24.595Z,990.60
2018-10-16T05:26:24.798Z,990.56
2018-10-16T05:27:31.115Z,990.63
2018-10-16T05:28:25.109Z,990.61
2018-10-16T05:29:25.390Z,990.61
2018-10-16T05:30:26.228Z,990.66
2018-10-16T05:31:27.789Z,990.68
2018-10-16T05:32:25.805Z,990.67
2018-10-16T05:33:25.855Z,990.66
2018-10-16T05:34:26.021Z,990.72
2018-10-16T05:35:26.503Z,990.74
2018-10-16T05:36:26.512Z,990.74
2018-10-16T05:37:33.131Z,990.74
2018-10-16T05:38:26.788Z,990.75
2018-10-16T05:39:27.243Z,990.78
2018-10-16T05:40:27.280Z,990.85
2018-10-16T05:41:27.370Z,990.82
2018-10-16T05:42:28.232Z,990.87
2018-10-16T05:43:27.894Z,990.89
2018-10-16T05:44:27.783Z,990.90
2018-10-16T05:45:27.918Z,990.97
2018-10-16T05:46:28.620Z,990.94
2018-10-16T05:47:28.745Z,990.97
2018-10-16T05:48:28.475Z,990.94
2018-10-16T05:49:28.858Z,990.94
2018-10-16T05:50:28.718Z,990.96
2018-10-16T05:51:28.978Z,990.95
2018-10-16T05:52:29.329Z,990.96
2018-10-16T05:53:29.248Z,990.93
2018-10-16T05:54:29.636Z,990.91
2018-10-16T05:55:29.760Z,990.92
2018-10-16T05:56:30.070Z,990.95
2018-10-16T05:57:30.090Z,990.93
2018-10-16T05:58:30.503Z,990.95
2018-10-16T05:59:30.602Z,990.98
2018-10-16T06:00:30.631Z,990.96
2018-10-16T06:01:31.181Z,990.94
2018-10-16T06:02:30.925Z,990.96
2018-10-16T06:03:31.156Z,990.97
2018-10-16T06:04:31.320Z,990.98
2018-10-16T06:05:31.474Z,990.97
2018-10-16T06:06:31.693Z,990.97
2018-10-16T06:07:34.153Z,991.00
2018-10-16T06:08:31.920Z,990.97
2018-10-16T06:09:32.054Z,990.97
2018-10-16T06:10:32.121Z,990.97
2018-10-16T06:11:32.353Z,990.96
2018-10-16T06:12:32.553Z,991.00
2018-10-16T06:13:32.673Z,990.98
2018-10-16T06:14:33.071Z,991.01
2018-10-16T06:15:33.216Z,991.00
2018-10-16T06:16:33.419Z,991.00
2018-10-16T06:17:33.581Z,991.02
2018-10-16T06:18:33.704Z,991.03
2018-10-16T06:19:33.962Z,991.05
2018-10-16T06:20:34.018Z,991.08
2018-10-16T06:21:34.229Z,991.07
2018-10-16T06:22:34.340Z,991.12
2018-10-16T06:23:34.512Z,991.13
2018-10-16T06:24:34.779Z,991.13
2018-10-16T06:25:34.867Z,991.13
2018-10-16T06:26:35.107Z,991.18
2018-10-16T06:27:35.284Z,991.22
2018-10-16T06:28:35.521Z,991.22
2018-10-16T06:29:35.518Z,991.25
2018-10-16T06:30:35.695Z,991.25
2018-10-16T06:31:35.888Z,991.28
2018-10-16T06:32:36.075Z,991.24
2018-10-16T06:33:36.190Z,991.28
2018-10-16T06:34:37.408Z,991.27
2018-10-16T06:35:36.542Z,991.33
2018-10-16T06:36:36.729Z,991.27
2018-10-16T06:37:36.717Z,991.31
2018-10-16T06:38:36.926Z,991.31
2018-10-16T06:39:37.218Z,991.30
2018-10-16T06:40:37.344Z,991.30
2018-10-16T06:41:37.516Z,991.31
2018-10-16T06:42:37.630Z,991.33
2018-10-16T06:43:37.776Z,991.25
2018-10-16T06:44:37.997Z,991.28
2018-10-16T06:45:38.188Z,991.27
2018-10-16T06:46:38.375Z,991.28
2018-10-16T06:47:38.571Z,991.35
2018-10-16T06:48:39.040Z,991.35
2018-10-16T06:49:38.825Z,991.30
2018-10-16T06:50:39.092Z,991.36
2018-10-16T06:51:39.227Z,991.35
2018-10-16T06:52:39.320Z,991.31
2018-10-16T06:53:39.489Z,991.34
2018-10-16T06:54:39.640Z,991.34
2018-10-16T06:55:39.927Z,991.40
2018-10-16T06:56:39.966Z,991.36
2018-10-16T06:57:40.223Z,991.36
2018-10-16T06:58:40.330Z,991.40
2018-10-16T06:59:40.469Z,991.40
2018-10-16T07:00:40.677Z,991.35
2018-10-16T07:01:40.897Z,991.36
2018-10-16T07:02:41.111Z,991.42
2018-10-16T07:03:41.253Z,991.45
2018-10-16T07:04:41.483Z,991.42
2018-10-16T07:05:41.604Z,991.43
2018-10-16T07:06:41.785Z,991.48
2018-10-16T07:07:42.015Z,991.46
2018-10-16T07:08:42.138Z,991.44
2018-10-16T07:09:42.324Z,991.45
2018-10-16T07:10:42.515Z,991.48
2018-10-16T07:11:42.602Z,991.48
2018-10-16T07:12:42.896Z,991.49
2018-10-16T07:13:42.997Z,991.49
2018-10-16T07:14:43.226Z,991.43
2018-10-16T07:15:43.359Z,991.49
2018-10-16T07:16:43.460Z,991.51
2018-10-16T07:17:43.785Z,991.50
2018-10-16T07:18:43.919Z,991.50
2018-10-16T07:19:44.139Z,991.48
2018-10-16T07:20:44.239Z,991.45
2018-10-16T07:21:44.549Z,991.43
2018-10-16T07:22:44.588Z,991.46
2018-10-16T07:23:44.876Z,991.47
2018-10-16T07:24:44.924Z,991.46
2018-10-16T07:25:45.322Z,991.46
2018-10-16T07:26:45.380Z,991.49
2018-10-16T07:27:45.559Z,991.50
2018-10-16T07:28:45.656Z,991.50
2018-10-16T07:29:45.805Z,991.55
2018-10-16T07:30:45.907Z,991.60
2018-10-16T07:31:46.163Z,991.61
2018-10-16T07:32:46.311Z,991.62
2018-10-16T07:33:46.564Z,991.61
2018-10-16T07:34:46.643Z,991.56
2018-10-16T07:35:46.884Z,991.56
2018-10-16T07:36:47.050Z,991.53
2018-10-16T07:37:47.250Z,991.54
2018-10-16T07:38:47.349Z,991.55
2018-10-16T07:39:47.471Z,991.55
2018-10-16T07:40:47.689Z,991.56
2018-10-16T07:41:47.835Z,991.51
2018-10-16T07:42:48.132Z,991.54
2018-10-16T07:43:48.225Z,991.53
2018-10-16T07:44:48.473Z,991.52
2018-10-16T07:45:48.568Z,991.59
2018-10-16T07:46:48.750Z,991.57
2018-10-16T07:47:48.860Z,991.56
2018-10-16T07:48:49.081Z,991.57
2018-10-16T07:49:49.223Z,991.59
2018-10-16T07:50:49.360Z,991.57
2018-10-16T07:51:49.556Z,991.56
2018-10-16T07:52:49.708Z,991.56
2018-10-16T07:53:49.834Z,991.60
2018-10-16T07:54:50.055Z,991.61
2018-10-16T07:55:50.239Z,991.63
2018-10-16T07:56:50.322Z,991.59
2018-10-16T07:57:50.576Z,991.66
2018-10-16T07:58:50.688Z,991.62
2018-10-16T07:59:50.835Z,991.62
2018-10-16T08:00:51.113Z,991.66
2018-10-16T08:01:51.227Z,991.65
2018-10-16T08:02:51.453Z,991.64
2018-10-16T08:03:51.624Z,991.64
2018-10-16T08:04:51.859Z,991.63
2018-10-16T08:05:52.034Z,991.60
2018-10-16T08:06:52.088Z,991.62
2018-10-16T08:07:52.388Z,991.62
2018-10-16T08:08:52.422Z,991.64
2018-10-16T08:09:52.724Z,991.60
2018-10-16T08:10:52.878Z,991.63
2018-10-16T08:11:52.970Z,991.66
2018-10-16T08:12:53.157Z,991.68
2018-10-16T08:13:53.348Z,991.67
2018-10-16T08:14:53.491Z,991.69
2018-10-16T08:15:53.609Z,991.71
2018-10-16T08:16:53.771Z,991.74
2018-10-16T08:17:53.927Z,991.74
2018-10-16T08:18:54.185Z,991.71
2018-10-16T08:19:54.342Z,991.70
2018-10-16T08:20:54.451Z,991.71
2018-10-16T08:21:54.619Z,991.71
2018-10-16T08:22:54.788Z,991.74
2018-10-16T08:23:54.945Z,991.73
2018-10-16T08:24:55.228Z,991.70
2018-10-16T08:25:55.309Z,991.77
2018-10-16T08:26:55.693Z,991.75
2018-10-16T08:27:55.587Z,991.73
2018-10-16T08:28:55.798Z,991.71
2018-10-16T08:29:55.992Z,991.75
2018-10-16T08:30:56.107Z,991.73
2018-10-16T08:31:56.406Z,991.74
2018-10-16T08:32:56.424Z,991.75
2018-10-16T08:33:56.573Z,991.77
2018-10-16T08:34:56.818Z,991.77
2018-10-16T08:35:56.892Z,991.76
2018-10-16T08:36:57.186Z,991.76
2018-10-16T08:37:57.285Z,991.80
2018-10-16T08:38:57.382Z,991.77
2018-10-16T08:39:57.617Z,991.73
2018-10-16T08:40:57.690Z,991.74
2018-10-16T08:41:57.884Z,991.68
2018-10-16T08:42:58.077Z,991.72
2018-10-16T08:43:58.385Z,991.71
2018-10-16T08:44:58.546Z,991.68
2018-10-16T08:45:58.693Z,991.71
2018-10-16T08:46:58.824Z,991.71
2018-10-16T08:47:59.823Z,991.70
2018-10-16T08:48:59.220Z,991.67
2018-10-16T08:49:59.593Z,991.70
2018-10-16T08:51:00.190Z,991.71
2018-10-16T08:51:59.734Z,991.69
2018-10-16T08:52:59.951Z,991.69
2018-10-16T08:54:00.139Z,991.72
2018-10-16T08:55:00.298Z,991.72
2018-10-16T08:56:00.482Z,991.76
2018-10-16T08:57:00.841Z,991.72
2018-10-16T08:58:00.719Z,991.73
2018-10-16T08:59:01.008Z,991.73
2018-10-16T09:00:01.141Z,991.71
2018-10-16T09:01:01.392Z,991.74
2018-10-16T09:02:01.392Z,991.78
2018-10-16T09:03:01.679Z,991.76
2018-10-16T09:04:01.766Z,991.75
2018-10-16T09:05:01.971Z,991.78
2018-10-16T09:06:02.633Z,991.76
2018-10-16T09:07:02.564Z,991.76
2018-10-16T09:08:02.605Z,991.75
2018-10-16T09:09:02.840Z,991.76
2018-10-16T09:10:02.923Z,991.77
2018-10-16T09:11:03.089Z,991.80
2018-10-16T09:12:03.341Z,991.78
2018-10-16T09:13:03.405Z,991.81
2018-10-16T09:14:03.642Z,991.74
2018-10-16T09:15:03.766Z,991.84
2018-10-16T09:16:03.887Z,991.85
2018-10-16T09:17:04.031Z,991.86
2018-10-16T09:18:04.317Z,991.97
2018-10-16T09:19:04.445Z,991.99
2018-10-16T09:20:04.634Z,991.97
2018-10-16T09:21:04.767Z,991.91
2018-10-16T09:22:04.992Z,991.93
2018-10-16T09:23:05.158Z,991.93
2018-10-16T09:24:05.290Z,991.96
2018-10-16T09:25:05.486Z,991.87
2018-10-16T09:26:05.648Z,991.88
2018-10-16T09:27:05.782Z,991.92
2018-10-16T09:28:06.006Z,991.97
2018-10-16T09:29:06.175Z,991.90
2018-10-16T09:30:06.295Z,992.01
2018-10-16T09:31:06.520Z,991.94
2018-10-16T09:32:06.703Z,991.86
2018-10-16T09:33:06.815Z,991.91
2018-10-16T09:34:07.226Z,991.97
2018-10-16T09:35:07.173Z,991.87
2018-10-16T09:36:07.398Z,991.89
2018-10-16T09:37:07.457Z,991.87
2018-10-16T09:38:07.714Z,991.85
2018-10-16T09:39:07.841Z,991.82
2018-10-16T09:40:07.937Z,991.88
2018-10-16T09:41:08.153Z,991.88
2018-10-16T09:42:08.367Z,991.87
2018-10-16T09:43:08.551Z,991.89
2018-10-16T09:44:08.673Z,991.93
2018-10-16T09:45:08.818Z,991.97
2018-10-16T09:46:09.104Z,991.99
2018-10-16T09:47:09.213Z,992.02
2018-10-16T09:48:09.439Z,991.96
2018-10-16T09:49:09.558Z,991.94
2018-10-16T09:50:09.703Z,991.99
2018-10-16T09:51:09.859Z,991.94
2018-10-16T09:52:09.980Z,991.88
2018-10-16T09:53:10.297Z,991.98
2018-10-16T09:54:10.365Z,991.97
2018-10-16T09:55:10.602Z,992.08
2018-10-16T09:56:10.729Z,991.96
2018-10-16T09:57:10.923Z,991.97
2018-10-16T09:58:11.079Z,991.98
2018-10-16T09:59:11.318Z,991.92
2018-10-16T10:00:11.511Z,991.94
2018-10-16T10:01:11.617Z,991.92
2018-10-16T10:02:11.839Z,991.83
2018-10-16T10:03:11.934Z,991.83
2018-10-16T10:04:12.145Z,991.82
2018-10-16T10:05:12.413Z,991.84
2018-10-16T10:06:12.512Z,991.86
2018-10-16T10:07:12.676Z,991.85
2018-10-16T10:08:12.767Z,991.90
2018-10-16T10:09:12.993Z,991.85
2018-10-16T10:10:13.176Z,991.82
2018-10-16T10:11:13.485Z,992.04
2018-10-16T10:12:13.467Z,992.09
2018-10-16T10:13:13.666Z,991.97
2018-10-16T10:14:13.899Z,992.80
2018-10-16T10:15:13.977Z,992.94
2018-10-16T10:16:14.147Z,992.40
2018-10-16T10:17:14.354Z,992.20
2018-10-16T10:18:14.546Z,992.03
2018-10-16T10:19:14.677Z,992.28
2018-10-16T10:20:14.821Z,992.05
2018-10-16T10:21:15.071Z,992.01
2018-10-16T10:22:15.141Z,991.99
2018-10-16T10:23:15.371Z,992.00
2018-10-16T10:24:15.588Z,991.95
2018-10-16T10:25:15.782Z,991.95
2018-10-16T10:26:15.956Z,991.98
2018-10-16T10:27:16.077Z,991.96
2018-10-16T10:28:16.256Z,991.92
2018-10-16T10:29:16.418Z,991.94
2018-10-16T10:30:16.616Z,991.88
2018-10-16T10:31:16.750Z,991.88
2018-10-16T10:32:16.915Z,991.89
2018-10-16T10:33:17.102Z,991.90
2018-10-16T10:34:17.263Z,991.93
2018-10-16T10:35:17.519Z,991.97
2018-10-16T10:36:17.609Z,992.00
2018-10-16T10:37:17.805Z,992.14
2018-10-16T10:38:17.918Z,992.31
2018-10-16T10:39:18.205Z,992.12
2018-10-16T10:40:18.317Z,992.07
2018-10-16T10:41:18.525Z,992.03
2018-10-16T10:42:18.740Z,992.21
2018-10-16T10:43:18.871Z,992.01
2018-10-16T10:44:19.081Z,991.90
2018-10-16T10:45:19.235Z,991.90
2018-10-16T10:46:19.398Z,991.86
2018-10-16T10:47:19.525Z,991.82
2018-10-16T10:48:20.748Z,991.75
2018-10-16T10:49:19.873Z,991.74
2018-10-16T10:50:20.195Z,991.78
2018-10-16T10:51:20.434Z,991.83
2018-10-16T10:52:20.399Z,991.86
2018-10-16T10:53:20.595Z,991.80
2018-10-16T10:54:20.761Z,991.83
2018-10-16T10:55:20.936Z,991.85
2018-10-16T10:56:21.067Z,991.87
2018-10-16T10:57:21.222Z,991.81
2018-10-16T10:58:21.399Z,991.88
2018-10-16T10:59:21.623Z,991.90
2018-10-16T11:00:21.748Z,991.86
2018-10-16T11:01:21.935Z,991.86
2018-10-16T11:02:22.158Z,991.84
2018-10-16T11:03:22.433Z,991.82
2018-10-16T11:04:23.362Z,991.81
2018-10-16T11:05:23.374Z,991.81
2018-10-16T11:06:22.783Z,991.81
2018-10-16T11:07:22.968Z,991.82
2018-10-16T11:08:23.100Z,991.78
2018-10-16T11:09:23.233Z,991.76
2018-10-16T11:10:23.425Z,991.74
2018-10-16T11:11:23.605Z,991.76
2018-10-16T11:12:23.793Z,991.76
2018-10-16T11:13:23.974Z,991.76
2018-10-16T11:14:24.140Z,991.83
2018-10-16T11:15:24.970Z,991.84
2018-10-16T11:16:24.464Z,991.86
2018-10-16T11:17:27.240Z,991.87
2018-10-16T11:18:24.690Z,991.89
2018-10-16T11:19:24.935Z,991.89
2018-10-16T11:20:25.047Z,991.91
2018-10-16T11:21:25.187Z,991.87
2018-10-16T11:22:25.443Z,991.87
2018-10-16T11:23:25.680Z,991.86
2018-10-16T11:24:25.786Z,991.87
2018-10-16T11:25:28.821Z,991.81
2018-10-16T11:26:26.104Z,991.82
2018-10-16T11:27:26.296Z,991.88
2018-10-16T11:28:26.402Z,991.90
2018-10-16T11:29:26.646Z,991.86
2018-10-16T11:30:26.837Z,991.89
2018-10-16T11:31:27.016Z,991.88
2018-10-16T11:32:27.131Z,991.89
2018-10-16T11:33:27.843Z,991.90
2018-10-16T11:34:27.705Z,991.86
2018-10-16T11:35:27.740Z,991.91
2018-10-16T11:36:27.934Z,991.91
2018-10-16T11:37:28.124Z,991.90
2018-10-16T11:38:28.268Z,991.89
2018-10-16T11:39:28.450Z,991.92
2018-10-16T11:40:28.678Z,991.86
2018-10-16T11:41:28.885Z,991.88
2018-10-16T11:42:29.032Z,991.86
2018-10-16T11:43:29.148Z,991.91
2018-10-16T11:44:29.364Z,991.88
2018-10-16T11:45:29.532Z,991.89
2018-10-16T11:46:29.786Z,991.88
2018-10-16T11:47:29.906Z,991.85
2018-10-16T11:48:30.066Z,991.85
2018-10-16T11:49:30.301Z,991.84
2018-10-16T11:50:30.497Z,991.86
2018-10-16T11:51:30.567Z,991.84
2018-10-16T11:52:30.866Z,991.85
2018-10-16T11:53:30.992Z,991.84
2018-10-16T11:54:31.099Z,991.82
2018-10-16T11:55:31.254Z,991.82
2018-10-16T11:56:32.031Z,991.79
2018-10-16T11:57:31.624Z,991.79
2018-10-16T11:58:31.845Z,991.80
2018-10-16T11:59:31.983Z,991.81
2018-10-16T12:00:32.165Z,991.81
2018-10-16T12:01:32.331Z,991.80
2018-10-16T12:02:32.571Z,991.86
2018-10-16T12:03:32.679Z,991.86
2018-10-16T12:04:32.810Z,991.89
2018-10-16T12:05:33.880Z,991.91
2018-10-16T12:06:33.183Z,991.89
2018-10-16T12:07:33.340Z,991.88
2018-10-16T12:08:33.530Z,991.86
2018-10-16T12:09:33.701Z,991.87
2018-10-16T12:10:34.049Z,991.86
2018-10-16T12:11:33.982Z,991.85
2018-10-16T12:12:34.185Z,991.85
2018-10-16T12:13:34.405Z,991.85
2018-10-16T12:14:34.509Z,991.86
2018-10-16T12:15:34.689Z,991.84
2018-10-16T12:16:34.873Z,991.87
2018-10-16T12:17:35.039Z,991.88
2018-10-16T12:18:35.205Z,991.89
2018-10-16T12:19:35.424Z,991.90
2018-10-16T12:20:35.515Z,991.84
2018-10-16T12:21:35.708Z,991.86
2018-10-16T12:22:35.813Z,991.87
2018-10-16T12:23:36.136Z,991.86
2018-10-16T12:24:36.229Z,991.87
2018-10-16T12:25:36.458Z,991.86
2018-10-16T12:26:36.973Z,991.86
2018-10-16T12:27:36.722Z,991.89
2018-10-16T12:28:36.933Z,991.91
2018-10-16T12:29:37.079Z,992.06
2018-10-16T12:30:37.221Z,991.95
2018-10-16T12:31:37.419Z,991.90
2018-10-16T12:32:38.391Z,991.88
2018-10-16T12:33:37.712Z,991.85
2018-10-16T12:34:37.814Z,991.90
2018-10-16T12:35:37.994Z,991.85
2018-10-16T12:36:38.130Z,991.85
2018-10-16T12:37:38.338Z,991.82
2018-10-16T12:38:38.493Z,991.81
2018-10-16T12:39:38.745Z,991.79
2018-10-16T12:40:38.910Z,991.78
2018-10-16T12:41:39.047Z,991.77
2018-10-16T12:42:39.256Z,991.75
2018-10-16T12:43:39.410Z,991.75
2018-10-16T12:44:39.576Z,991.75
2018-10-16T12:45:39.736Z,991.72
2018-10-16T12:46:39.909Z,991.74
2018-10-16T12:47:40.048Z,991.76
2018-10-16T12:48:40.261Z,991.77
2018-10-16T12:49:40.377Z,991.77
2018-10-16T12:50:40.641Z,991.73
2018-10-16T12:51:40.835Z,991.76
2018-10-16T12:52:40.966Z,991.72
2018-10-16T12:53:41.289Z,991.70
2018-10-16T12:54:41.287Z,991.68
2018-10-16T12:55:41.440Z,991.71
2018-10-16T12:56:44.067Z,991.66
2018-10-16T12:57:41.865Z,991.72
2018-10-16T12:58:42.093Z,991.75
2018-10-16T12:59:42.201Z,991.70
2018-10-16T13:00:42.349Z,991.70
2018-10-16T13:01:42.537Z,991.67
2018-10-16T13:02:43.035Z,991.71
2018-10-16T13:03:43.457Z,991.69
2018-10-16T13:04:43.041Z,991.69
2018-10-16T13:05:43.191Z,991.71
2018-10-16T13:06:43.416Z,991.71
2018-10-16T13:07:43.630Z,991.72
2018-10-16T13:08:43.750Z,991.73
2018-10-16T13:09:43.962Z,991.73
2018-10-16T13:10:44.069Z,991.71
2018-10-16T13:11:44.279Z,991.74
2018-10-16T13:12:44.413Z,991.76
2018-10-16T13:13:44.648Z,991.73
2018-10-16T13:14:44.737Z,991.71
2018-10-16T13:15:46.390Z,991.73
2018-10-16T13:16:45.446Z,991.75
2018-10-16T13:17:45.249Z,991.73
2018-10-16T13:18:47.094Z,991.73
2018-10-16T13:19:45.955Z,991.74
2018-10-16T13:20:47.126Z,991.74
2018-10-16T13:21:45.977Z,991.71
2018-10-16T13:22:47.463Z,991.75
2018-10-16T13:24:47.820Z,991.80
2018-10-16T13:25:47.052Z,991.78
2018-10-16T13:26:47.519Z,991.79
2018-10-16T13:27:46.992Z,991.79
2018-10-16T13:28:50.325Z,991.79
2018-10-16T13:29:47.335Z,991.78
2018-10-16T13:31:49.111Z,991.77
2018-10-16T13:33:48.133Z,991.81
2018-10-16T13:35:49.377Z,991.76
2018-10-16T13:36:48.772Z,991.80
2018-10-16T13:37:48.780Z,991.79
2018-10-16T13:40:49.910Z,991.77
2018-10-16T13:41:49.624Z,991.74
2018-10-16T13:42:49.850Z,991.76
2018-10-16T13:43:50.220Z,991.78
2018-10-16T13:44:50.125Z,991.77
2018-10-16T13:45:50.358Z,991.77
2018-10-16T13:46:50.419Z,991.78
2018-10-16T13:47:50.775Z,991.79
2018-10-16T13:48:50.839Z,991.74
2018-10-16T13:49:51.074Z,991.76
2018-10-16T13:50:51.116Z,991.76
2018-10-16T13:51:51.363Z,991.76
2018-10-16T13:52:51.567Z,991.76
2018-10-16T13:53:51.727Z,991.76
2018-10-16T13:54:51.910Z,991.78
2018-10-16T13:55:52.065Z,991.79
2018-10-16T13:56:52.318Z,991.82
2018-10-16T13:57:52.416Z,991.80
2018-10-16T13:58:52.683Z,991.81
2018-10-16T13:59:52.742Z,991.78
2018-10-16T14:00:53.547Z,991.78
2018-10-16T14:01:53.125Z,991.79
2018-10-16T14:02:53.314Z,991.78
2018-10-16T14:03:53.541Z,991.77
2018-10-16T14:04:53.903Z,991.76
2018-10-16T14:05:53.770Z,991.81
2018-10-16T14:06:53.950Z,991.82
2018-10-16T14:07:54.181Z,991.81
2018-10-16T14:08:54.325Z,991.81
2018-10-16T14:09:54.537Z,991.82
2018-10-16T14:10:55.355Z,991.85
2018-10-16T14:11:54.850Z,991.86
2018-10-16T14:12:55.077Z,991.82
2018-10-16T14:13:55.171Z,991.84
2018-10-16T14:14:55.372Z,991.87
2018-10-16T14:15:55.584Z,991.90
2018-10-16T14:16:55.704Z,991.85
2018-10-16T14:17:55.781Z,991.85
2018-10-16T14:18:56.062Z,991.87
2018-10-16T14:19:56.238Z,991.86
2018-10-16T14:20:56.422Z,991.89
2018-10-16T14:21:56.549Z,991.87
2018-10-16T14:22:56.744Z,991.91
2018-10-16T14:23:56.936Z,991.91
2018-10-16T14:24:57.026Z,991.85
2018-10-16T14:25:57.231Z,991.85
2018-10-16T14:26:57.384Z,991.85
2018-10-16T14:27:57.621Z,991.87
2018-10-16T14:28:57.807Z,991.85
2018-10-16T14:29:57.957Z,991.85
2018-10-16T14:30:58.205Z,991.84
2018-10-16T14:31:58.312Z,991.82
2018-10-16T14:32:58.526Z,991.78
2018-10-16T14:33:58.877Z,991.77
2018-10-16T14:34:58.915Z,991.81
2018-10-16T14:35:59.077Z,991.77
2018-10-16T14:36:59.299Z,991.79
2018-10-16T14:37:59.439Z,991.77
2018-10-16T14:38:59.645Z,991.77
2018-10-16T14:39:59.733Z,991.74
2018-10-16T14:40:59.917Z,991.76
2018-10-16T14:42:00.058Z,991.79
2018-10-16T14:43:00.249Z,991.76
2018-10-16T14:44:00.388Z,991.76
2018-10-16T14:45:00.681Z,991.75
2018-10-16T14:46:00.740Z,991.74
2018-10-16T14:47:00.997Z,991.69
2018-10-16T14:48:01.081Z,991.69
2018-10-16T14:49:01.392Z,991.72
2018-10-16T14:50:01.535Z,991.71
2018-10-16T14:51:01.515Z,991.69
2018-10-16T14:52:01.838Z,991.68
2018-10-16T14:53:02.047Z,991.68
2018-10-16T14:54:02.085Z,991.70
2018-10-16T14:55:02.687Z,991.70
2018-10-16T14:56:02.548Z,991.67
2018-10-16T14:57:02.709Z,991.69
2018-10-16T14:58:02.832Z,991.64
2018-10-16T14:59:03.070Z,991.68
2018-10-16T15:00:04.068Z,991.68
2018-10-16T15:01:03.418Z,991.66
2018-10-16T15:02:04.325Z,991.69
2018-10-16T15:03:03.752Z,991.69
2018-10-16T15:04:04.100Z,991.68
2018-10-16T15:05:04.188Z,991.71
2018-10-16T15:06:04.342Z,991.74
2018-10-16T15:07:04.428Z,991.74
2018-10-16T15:08:04.661Z,991.74
2018-10-16T15:09:04.939Z,991.72
2018-10-16T15:10:05.136Z,991.75
2018-10-16T15:11:05.266Z,991.76
2018-10-16T15:12:06.138Z,991.77
2018-10-16T15:13:05.648Z,991.72
2018-10-16T15:14:05.758Z,991.76
2018-10-16T15:15:05.988Z,991.70
2018-10-16T15:16:06.112Z,991.72
2018-10-16T15:17:06.221Z,991.71
2018-10-16T15:18:06.487Z,991.72
2018-10-16T15:19:06.598Z,991.69
2018-10-16T15:20:06.861Z,991.70
2018-10-16T15:21:07.290Z,991.66
2018-10-16T15:22:07.255Z,991.71
2018-10-16T15:23:07.410Z,991.67
2018-10-16T15:24:07.510Z,991.68
2018-10-16T15:25:07.497Z,991.65
2018-10-16T15:26:07.893Z,991.68
2018-10-16T15:27:08.014Z,991.62
2018-10-16T15:28:08.304Z,991.65
2018-10-16T15:29:08.388Z,991.64
2018-10-16T15:30:08.751Z,991.66
2018-10-16T15:31:08.699Z,991.66
2018-10-16T15:32:08.947Z,991.65
2018-10-16T15:33:09.022Z,991.67
2018-10-16T15:34:09.440Z,991.66
2018-10-16T15:35:09.498Z,991.70
2018-10-16T15:36:09.782Z,991.70
2018-10-16T15:37:09.923Z,991.73